Скопје, Macedonia

11:02 AM CET на 21 Јануари, 2019 (GMT +0100)
airport Alexander the Great | | Change Station

Elev 780 ft 41.97 °N, 21.61 °E | Updated 58 seconds ago

Заоблачено
Заоблачено
39.9 °F
Feels Like 40 °F
С
0
Ветер Променлив Ветер from Север
Gusts 0.0 mph

Денес
High -- | Low -- °F
--% Chance of Precip.
Вчера
High -- | Low -- °F
Precip. -- инчи
Притисок 30.09 инчи
Видливост 1.1 миљи
Облаци Заоблачено 1400 ft
Лични чувство за темп. со ветерот 40 °F
Точка на kондензација 40 °F
Влажност 100%
Дожд 0.00 инчи
Височина на снег Not available.
6:56 AM 4:34 PM
Полна Месечина, 100% visible
METAR LWSK 210930Z 00000KT 1800 BR OVC014 03/03 Q1019 NOSIG
Притисок 30.09 инчи
Видливост 1.1 миљи
Облаци Заоблачено 1400 ft
Лични чувство за темп. со ветерот 40 °F
Точка на kондензација 40 °F
Влажност 100%
Дожд 0.00 инчи
Височина на снег Not available.
6:56 AM 4:34 PM
Полна Месечина, 100% visible
METAR LWSK 210930Z 00000KT 1800 BR OVC014 03/03 Q1019 NOSIG

Get Severe Weather Alerts

Thanks for signing up!

Be on the lookout for a verification email in your inbox.

You'll start receiving the daily forecast at 6 AM.

×

10-Day Weather Forecast

×

Almanac

Астрономијата

Jan. 21, 2019 Изгревање Заоѓање
Актуелно време
Граѓанскиот самрак
Наутички самрак
Астрономски самрак
Месечината
Должина на видливата светлина
Должина на денот
Tomorrow will be .
, % of the Moon is Illuminated

Екстреми денес

Country Highs Country Lows

Community

WunderPhotos

Category 6

Welcome to Category 6. This is the collective home for Weather Underground's featured writeups by Dr. Jeff Masters (right), Bob Henson (left), Chris Burt, and other regular contributors.

Nearby

Квалитетот на воздухот

  Квалитетот на воздухот AQ индекс Загадувач
Not available.

Височина на снег

Station Depth Висина

Earthquake Activity

Град Distance Mag. Time & Date
Minimum magnitude displayed is 2.5.

Coastal Water Temperatures

Место Температура

Stations

Nearby Weather Stations

Локација на станицата Темп. Лични чувство за темп. со ветерот Точка на kондензација Влажност Ветер Precip. Elev Ажурирани Тип